Aeroporto :
LOGIN :

Iscrizione | Disclaimer

   EN    FR    IT 

 










Sommario :    VFR   VFR Marginale   IFR   IFR Intensivo   IFR Molto Intensivo
Visibilità : 
Base nubi : 
>= 8 km
>= 3000ft
5 / 8 km
1000 / 3000 ft
1500m / 5 km
500 / 1000 ft
800 / 1500m
200 / 500 ft
< 800m
< 200 ft
Simboli :   Temporali  Nebbia  Neve Forte  Precipitazioni Forti  Vento > 20 kt
SIGMETs :   Varie  Temporali  Ghiacco  Turbolenza  Onda orograficha  Ceneri Vulcaniche






- Altitudine del aeroporto : 616 ft
- Codice IATA : PUF


LFBP - Pau

ULTIMO METAR :
  • 062030Z AUTO 11003KT CAVOK 06/05 Q1022 NOSIG

METARs OBSOLETI :
  • 062000Z AUTO VRB02KT CAVOK 06/05 Q1022 NOSIG
  • 061930Z AUTO 13003KT CAVOK 07/06 Q1022 NOSIG
  • 061900Z AUTO 15002KT CAVOK 07/06 Q1021 NOSIG
  • 061830Z AUTO 14003KT CAVOK 08/06 Q1021 NOSIG
  • 061800Z AUTO 07002KT CAVOK 09/07 Q1021 NOSIG

TAF TAF LFBP
Valido dal 06 a 18 ore il 07 a 18 ore UTC


061700Z 0618/0718 VRB03KT CAVOK
BECMG 0700/0703 BKN040
PROB30 0703/0706 2000 BR BKN010
TEMPO 0706/0712 -RA BKN018



MetMap, La meteo Aeronautica in un colpo d'occhio ! - Copyright ORBIFLY Dicembre 2007 - Disclaimer

ORBIFLY MET'MAP TEAM :

Programmazione e sviluppo : Alexandra Zaïnal
Concezione : Baudouin d'Aumeries
Aiuto per la programmazione : Marc-Olivier Méhu
Supporto tecnico e logistico : Manuel Goepfert
Aiuto per la traduzione : Arnaldo La Scala

Contatto : metmap@orbifly.com




FONTI E CREDITI :

   NOAA